createdAt,value
2018-10-01T00:01:53.708Z,79.30
2018-10-01T00:04:58.794Z,79.36
2018-10-01T00:08:04.011Z,79.67
2018-10-01T00:11:09.008Z,79.55
2018-10-01T00:14:14.790Z,79.06
2018-10-01T00:17:19.826Z,79.66
2018-10-01T00:20:31.305Z,80.27
2018-10-01T00:23:36.600Z,79.40
2018-10-01T00:26:41.613Z,80.31
2018-10-01T00:29:46.628Z,79.84
2018-10-01T00:32:52.372Z,79.67
2018-10-01T00:35:58.332Z,78.92
2018-10-01T00:39:05.647Z,79.07
2018-10-01T00:42:10.677Z,80.03
2018-10-01T00:45:15.751Z,79.19
2018-10-01T00:48:20.814Z,79.17
2018-10-01T00:51:26.997Z,79.11
2018-10-01T00:54:32.038Z,79.92
2018-10-01T00:57:37.061Z,80.33
2018-10-01T01:00:42.085Z,80.09
2018-10-01T01:03:47.077Z,79.01
2018-10-01T01:06:52.162Z,80.15
2018-10-01T01:09:57.902Z,79.60
2018-10-01T01:13:04.977Z,80.44
2018-10-01T01:16:10.767Z,80.30
2018-10-01T01:19:16.490Z,80.38
2018-10-01T01:22:21.560Z,80.85
2018-10-01T01:25:26.585Z,79.52
2018-10-01T01:28:32.649Z,79.21
2018-10-01T01:31:37.687Z,79.11
2018-10-01T01:34:42.726Z,79.29
2018-10-01T01:37:47.794Z,80.48
2018-10-01T01:40:53.502Z,80.14
2018-10-01T01:43:58.510Z,78.89
2018-10-01T01:47:03.569Z,78.69
2018-10-01T01:50:09.415Z,80.54
2018-10-01T01:53:16.219Z,79.70
2018-10-01T01:56:21.316Z,79.64
2018-10-01T01:59:26.397Z,80.52
2018-10-01T02:02:31.506Z,80.66
2018-10-01T02:05:36.563Z,79.23
2018-10-01T02:08:41.605Z,79.35
2018-10-01T02:11:47.377Z,79.23
2018-10-01T02:14:52.938Z,79.33
2018-10-01T02:17:57.961Z,79.74
2018-10-01T02:21:04.626Z,80.04
2018-10-01T02:24:09.659Z,80.04
2018-10-01T02:27:14.818Z,80.43
2018-10-01T02:33:55.381Z,80.67
2018-10-01T02:37:00.378Z,80.29
2018-10-01T02:40:05.412Z,79.74
2018-10-01T02:43:10.540Z,79.58
2018-10-01T02:46:15.546Z,80.03
2018-10-01T02:49:20.578Z,79.66
2018-10-01T02:52:31.432Z,79.45
2018-10-01T02:55:36.473Z,80.38
2018-10-01T02:58:42.346Z,79.00
2018-10-01T03:01:47.362Z,79.53
2018-10-01T03:04:52.540Z,79.60
2018-10-01T03:07:58.671Z,79.37
2018-10-01T03:11:03.681Z,79.50
2018-10-01T03:14:10.416Z,79.31
2018-10-01T03:17:16.219Z,79.55
2018-10-01T03:20:21.244Z,79.22
2018-10-01T03:23:26.272Z,78.89
2018-10-01T03:26:32.437Z,78.98
2018-10-01T03:29:38.600Z,79.92
2018-10-01T03:32:44.370Z,80.25
2018-10-01T03:35:50.237Z,79.77
2018-10-01T03:38:55.309Z,79.68
2018-10-01T03:42:00.363Z,78.54
2018-10-01T03:45:05.414Z,78.29
2018-10-01T03:48:10.419Z,79.20
2018-10-01T03:51:16.458Z,78.05
2018-10-01T03:54:21.606Z,79.42
2018-10-01T03:57:26.602Z,79.51
2018-10-01T04:00:32.693Z,78.43
2018-10-01T04:03:37.693Z,78.57
2018-10-01T04:06:42.694Z,78.81
2018-10-01T04:09:47.961Z,78.57
2018-10-01T04:12:53.793Z,79.51
2018-10-01T04:15:58.807Z,79.04
2018-10-01T04:19:05.509Z,79.98
2018-10-01T04:22:11.385Z,79.33
2018-10-01T04:25:18.054Z,79.30
2018-10-01T04:28:24.116Z,78.84
2018-10-01T04:31:29.110Z,79.81
2018-10-01T04:34:34.813Z,79.35
2018-10-01T04:37:40.496Z,79.55
2018-10-01T04:40:46.237Z,80.19
2018-10-01T04:43:51.293Z,80.05
2018-10-01T04:46:57.413Z,80.17
2018-10-01T04:53:20.908Z,79.04
2018-10-01T04:56:27.256Z,79.37
2018-10-01T04:59:33.081Z,79.92
2018-10-01T05:02:38.401Z,80.72
2018-10-01T05:05:44.557Z,80.25
2018-10-01T05:08:49.738Z,81.04
2018-10-01T05:15:02.934Z,80.36
2018-10-01T05:18:07.930Z,80.99
2018-10-01T05:21:13.225Z,80.29
2018-10-01T05:24:19.378Z,80.70
2018-10-01T05:27:24.858Z,80.51
2018-10-01T05:30:30.571Z,79.81
2018-10-01T05:33:37.336Z,80.61
2018-10-01T05:36:45.585Z,79.74
2018-10-01T05:39:51.699Z,79.60
2018-10-01T05:42:57.986Z,80.20
2018-10-01T05:46:03.796Z,80.41
2018-10-01T05:49:10.885Z,80.46
2018-10-01T05:52:19.017Z,81.08
2018-10-01T05:55:30.388Z,80.97
2018-10-01T05:58:38.819Z,79.72
2018-10-01T06:01:49.120Z,80.29
2018-10-01T06:04:57.046Z,79.37
2018-10-01T06:08:06.572Z,79.37
2018-10-01T06:11:18.813Z,78.74
2018-10-01T06:14:33.979Z,78.85
2018-10-01T06:17:46.238Z,79.50
2018-10-01T06:20:54.057Z,79.03
2018-10-01T06:24:05.930Z,78.31
2018-10-01T06:27:23.915Z,78.19
2018-10-01T06:30:33.927Z,78.95
2018-10-01T06:33:45.382Z,79.16
2018-10-01T06:36:53.532Z,78.58
2018-10-01T06:40:03.537Z,78.74
2018-10-01T06:43:14.630Z,77.48
2018-10-01T06:46:22.142Z,78.12
2018-10-01T06:49:29.472Z,77.22
2018-10-01T06:52:39.830Z,78.21
2018-10-01T06:55:48.881Z,77.44
2018-10-01T06:58:59.052Z,76.61
2018-10-01T07:02:07.384Z,76.41
2018-10-01T07:05:17.670Z,76.19
2018-10-01T07:08:26.721Z,74.00
2018-10-01T07:11:38.126Z,74.85
2018-10-01T07:14:51.166Z,73.99
2018-10-01T07:18:01.053Z,73.02
2018-10-01T07:21:10.213Z,72.49
2018-10-01T07:24:20.558Z,72.21
2018-10-01T07:27:29.565Z,71.92
2018-10-01T07:30:40.389Z,71.01
2018-10-01T07:33:49.459Z,71.94
2018-10-01T07:36:57.614Z,70.08
2018-10-01T07:40:02.658Z,70.25
2018-10-01T07:43:08.582Z,70.62
2018-10-01T07:46:13.870Z,69.71
2018-10-01T07:49:18.825Z,69.05
2018-10-01T07:52:24.466Z,67.83
2018-10-01T07:55:29.461Z,68.72
2018-10-01T07:58:35.634Z,68.39
2018-10-01T08:01:40.638Z,68.16
2018-10-01T08:04:46.733Z,67.70
2018-10-01T08:07:51.771Z,67.44
2018-10-01T08:10:56.867Z,66.31
2018-10-01T08:14:04.210Z,65.97
2018-10-01T08:17:09.161Z,66.75
2018-10-01T08:20:14.306Z,65.29
2018-10-01T08:23:24.145Z,65.45
2018-10-01T08:26:34.301Z,65.47
2018-10-01T08:29:42.508Z,64.71
2018-10-01T08:32:52.118Z,63.84
2018-10-01T08:36:00.513Z,63.23
2018-10-01T08:39:13.268Z,63.65
2018-10-01T08:42:23.376Z,63.19
2018-10-01T08:45:33.390Z,62.15
2018-10-01T08:48:51.704Z,61.99
2018-10-01T08:52:11.924Z,61.62
2018-10-01T08:55:19.408Z,62.97
2018-10-01T08:58:31.835Z,62.37
2018-10-01T09:01:44.239Z,59.76
2018-10-01T09:04:57.179Z,60.12
2018-10-01T09:08:09.272Z,60.66
2018-10-01T09:11:17.417Z,61.19
2018-10-01T09:14:22.736Z,60.31
2018-10-01T09:17:27.779Z,60.04
2018-10-01T09:20:33.113Z,59.22
2018-10-01T09:23:42.189Z,58.74
2018-10-01T09:26:51.543Z,56.83
2018-10-01T09:30:01.815Z,57.71
2018-10-01T09:33:12.129Z,56.38
2018-10-01T09:36:24.501Z,55.59
2018-10-01T09:39:46.799Z,52.53
2018-10-01T09:42:58.414Z,54.12
2018-10-01T09:46:15.464Z,55.20
2018-10-01T09:49:21.883Z,56.12
2018-10-01T09:52:31.602Z,54.46
2018-10-01T09:55:40.889Z,54.85
2018-10-01T09:58:52.031Z,57.21
2018-10-01T10:02:06.284Z,57.73
2018-10-01T10:05:18.708Z,57.20
2018-10-01T10:08:30.183Z,55.81
2018-10-01T10:11:37.830Z,55.63
2018-10-01T10:14:47.598Z,54.47
2018-10-01T10:17:55.772Z,56.40
2018-10-01T10:21:05.543Z,56.39
2018-10-01T10:24:15.194Z,59.16
2018-10-01T10:27:24.706Z,58.05
2018-10-01T10:30:39.521Z,57.21
2018-10-01T10:33:49.775Z,56.38
2018-10-01T10:36:59.710Z,55.70
2018-10-01T10:40:09.995Z,56.43
2018-10-01T10:43:20.762Z,57.06
2018-10-01T10:46:28.355Z,56.53
2018-10-01T10:49:37.828Z,56.61
2018-10-01T10:52:50.858Z,55.10
2018-10-01T11:08:07.986Z,52.16
2018-10-01T11:11:17.784Z,51.35
2018-10-01T11:14:27.831Z,49.89
2018-10-01T11:17:39.744Z,48.46
2018-10-01T11:20:50.222Z,48.02
2018-10-01T11:24:03.483Z,45.03
2018-10-01T11:27:19.023Z,47.62
2018-10-01T11:30:36.502Z,45.61
2018-10-01T11:33:48.584Z,46.38
2018-10-01T11:36:56.912Z,48.63
2018-10-01T11:40:07.963Z,48.43
2018-10-01T11:43:18.438Z,48.67
2018-10-01T11:46:26.041Z,49.04
2018-10-01T11:49:38.022Z,48.24
2018-10-01T11:52:48.390Z,44.76
2018-10-01T11:55:56.891Z,46.35
2018-10-01T11:59:05.687Z,48.98
2018-10-01T12:02:16.474Z,47.93
2018-10-01T12:05:27.501Z,46.40
2018-10-01T12:08:37.713Z,46.53
2018-10-01T12:15:09.137Z,47.58
2018-10-01T12:18:19.754Z,48.55
2018-10-01T12:21:28.536Z,48.65
2018-10-01T12:24:46.234Z,49.36
2018-10-01T12:27:56.679Z,49.09
2018-10-01T12:31:06.814Z,46.08
2018-10-01T12:34:19.206Z,44.70
2018-10-01T12:37:28.687Z,44.06
2018-10-01T12:40:36.622Z,43.77
2018-10-01T12:43:46.730Z,42.31
2018-10-01T12:46:57.326Z,40.63
2018-10-01T12:50:09.330Z,40.59
2018-10-01T12:53:20.173Z,39.24
2018-10-01T12:56:33.445Z,39.91
2018-10-01T12:59:43.062Z,42.57
2018-10-01T13:02:50.090Z,41.02
2018-10-01T13:06:02.851Z,40.83
2018-10-01T13:09:12.460Z,39.77
2018-10-01T13:12:19.059Z,42.23
2018-10-01T13:15:34.420Z,37.15
2018-10-01T13:18:44.794Z,37.24
2018-10-01T13:21:52.591Z,40.75
2018-10-01T13:25:16.311Z,41.91
2018-10-01T13:28:27.017Z,41.00
2018-10-01T13:31:35.847Z,40.39
2018-10-01T13:34:43.956Z,39.71
2018-10-01T13:37:51.828Z,38.10
2018-10-01T13:41:01.103Z,38.20
2018-10-01T13:44:13.340Z,36.97
2018-10-01T13:47:25.387Z,39.97
2018-10-01T13:50:37.984Z,38.68
2018-10-01T13:54:08.178Z,41.50
2018-10-01T13:57:19.158Z,41.59
2018-10-01T14:00:27.809Z,41.22
2018-10-01T14:03:38.495Z,41.60
2018-10-01T14:06:50.282Z,42.42
2018-10-01T14:10:02.245Z,41.97
2018-10-01T14:13:11.479Z,42.42
2018-10-01T14:16:22.785Z,43.47
2018-10-01T14:19:32.246Z,40.37
2018-10-01T14:22:42.709Z,37.29
2018-10-01T14:25:52.202Z,38.44
2018-10-01T14:29:01.984Z,39.93
2018-10-01T14:32:11.039Z,42.42
2018-10-01T14:35:18.961Z,42.94
2018-10-01T14:38:28.660Z,43.42
2018-10-01T14:41:37.475Z,45.02
2018-10-01T14:44:50.251Z,45.61
2018-10-01T14:48:01.137Z,46.58
2018-10-01T14:51:11.335Z,46.71
2018-10-01T14:54:21.450Z,48.62
2018-10-01T14:57:32.682Z,50.51
2018-10-01T15:00:45.530Z,49.62
2018-10-01T15:03:53.266Z,49.56
2018-10-01T15:07:01.965Z,49.29
2018-10-01T15:10:09.907Z,50.35
2018-10-01T15:13:24.556Z,49.56
2018-10-01T15:16:36.788Z,50.95
2018-10-01T15:19:46.649Z,50.47
2018-10-01T15:23:00.449Z,51.83
2018-10-01T15:26:09.445Z,52.25
2018-10-01T15:29:14.465Z,53.41
2018-10-01T15:32:20.834Z,52.69
2018-10-01T15:35:25.985Z,54.10
2018-10-01T15:38:35.870Z,53.57
2018-10-01T15:41:40.915Z,54.18
2018-10-01T15:44:47.172Z,53.86
2018-10-01T15:47:53.561Z,53.33
2018-10-01T15:50:59.645Z,55.87
2018-10-01T15:54:05.775Z,55.64
2018-10-01T15:57:11.578Z,55.15
2018-10-01T16:00:16.563Z,55.92
2018-10-01T16:03:22.460Z,57.13
2018-10-01T16:06:28.274Z,56.07
2018-10-01T16:09:33.652Z,56.90
2018-10-01T16:12:39.529Z,56.96
2018-10-01T16:15:45.248Z,57.56
2018-10-01T16:18:50.367Z,58.68
2018-10-01T16:21:56.517Z,58.79
2018-10-01T16:25:01.538Z,58.79
2018-10-01T16:28:11.013Z,59.30
2018-10-01T16:31:23.500Z,58.62
2018-10-01T16:34:29.563Z,59.50
2018-10-01T16:37:40.872Z,59.78
2018-10-01T16:40:48.159Z,59.29
2018-10-01T16:43:56.504Z,58.99
2018-10-01T16:47:03.129Z,60.04
2018-10-01T16:50:10.785Z,60.50
2018-10-01T16:53:18.212Z,61.46
2018-10-01T16:56:25.629Z,60.49
2018-10-01T16:59:32.335Z,60.52
2018-10-01T17:02:38.797Z,60.91
2018-10-01T17:05:44.240Z,60.43
2018-10-01T17:08:52.132Z,60.87
2018-10-01T17:11:57.147Z,60.23
2018-10-01T17:15:02.219Z,60.95
2018-10-01T17:18:07.265Z,62.09
2018-10-01T17:21:13.675Z,61.88
2018-10-01T17:24:20.994Z,62.08
2018-10-01T17:27:26.069Z,61.49
2018-10-01T17:30:32.090Z,62.36
2018-10-01T17:33:37.124Z,63.66
2018-10-01T17:36:44.606Z,61.80
2018-10-01T17:40:26.174Z,63.27
2018-10-01T17:43:56.190Z,62.85
2018-10-01T17:47:13.089Z,63.25
2018-10-01T17:50:18.672Z,63.58
2018-10-01T17:53:25.968Z,63.73
2018-10-01T17:56:31.793Z,63.74
2018-10-01T17:59:38.031Z,63.42
2018-10-01T18:02:43.081Z,64.14
2018-10-01T18:05:48.936Z,64.90
2018-10-01T18:08:54.807Z,64.62
2018-10-01T18:12:00.991Z,64.20
2018-10-01T18:15:07.284Z,63.00
2018-10-01T18:18:12.483Z,64.42
2018-10-01T18:21:18.100Z,63.76
2018-10-01T18:24:23.205Z,64.89
2018-10-01T18:27:28.932Z,63.04
2018-10-01T18:30:34.151Z,64.56
2018-10-01T18:33:40.030Z,63.37
2018-10-01T18:36:45.264Z,62.83
2018-10-01T18:39:50.418Z,64.05
2018-10-01T18:42:56.525Z,63.08
2018-10-01T18:46:02.793Z,62.74
2018-10-01T18:49:07.829Z,62.43
2018-10-01T18:52:14.137Z,64.74
2018-10-01T18:55:19.890Z,62.17
2018-10-01T18:58:25.645Z,62.91
2018-10-01T19:01:35.940Z,62.69
2018-10-01T19:04:41.057Z,63.03
2018-10-01T19:07:48.016Z,63.69
2018-10-01T19:10:54.143Z,63.19
2018-10-01T19:14:02.834Z,62.44
2018-10-01T19:17:09.008Z,62.74
2018-10-01T19:20:15.189Z,63.06
2018-10-01T19:23:21.329Z,63.38
2018-10-01T19:26:27.598Z,63.56
2018-10-01T19:29:32.746Z,64.57
2018-10-01T19:32:39.500Z,64.01
2018-10-01T19:35:45.916Z,64.88
2018-10-01T19:38:51.114Z,64.83
2018-10-01T19:41:57.098Z,65.03
2018-10-01T19:45:03.711Z,65.22
2018-10-01T19:48:09.991Z,64.86
2018-10-01T19:51:18.026Z,66.41
2018-10-01T19:54:31.411Z,67.25
2018-10-01T19:57:37.569Z,66.52
2018-10-01T20:00:43.758Z,66.25
2018-10-01T20:03:49.997Z,66.21
2018-10-01T20:06:55.150Z,65.22
2018-10-01T20:10:05.830Z,64.19
2018-10-01T20:13:15.200Z,64.34
2018-10-01T20:16:24.424Z,65.24
2018-10-01T20:19:30.882Z,64.96
2018-10-01T20:22:36.609Z,64.34
2018-10-01T20:25:42.810Z,63.32
2018-10-01T20:28:49.232Z,63.60
2018-10-01T20:31:54.820Z,63.15
2018-10-01T20:35:00.666Z,64.21
2018-10-01T20:38:05.576Z,64.44
2018-10-01T20:41:11.410Z,64.38
2018-10-01T20:44:17.387Z,64.25
2018-10-01T20:47:23.033Z,63.01
2018-10-01T20:50:29.302Z,64.24
2018-10-01T20:53:35.186Z,63.46
2018-10-01T20:56:41.389Z,63.78
2018-10-01T20:59:47.156Z,63.31
2018-10-01T21:02:53.953Z,63.13
2018-10-01T21:05:58.974Z,65.65
2018-10-01T21:09:07.701Z,64.13
2018-10-01T21:15:05.159Z,65.70
2018-10-01T21:18:11.877Z,65.29
2018-10-01T21:21:17.747Z,65.03
2018-10-01T21:24:23.393Z,66.24
2018-10-01T21:27:30.676Z,66.85
2018-10-01T21:30:35.728Z,65.99
2018-10-01T21:33:40.833Z,65.96
2018-10-01T21:36:47.047Z,66.19
2018-10-01T21:40:02.573Z,67.44
2018-10-01T21:43:07.578Z,66.87
2018-10-01T21:46:13.784Z,66.89
2018-10-01T21:49:18.825Z,67.17
2018-10-01T21:52:25.657Z,67.14
2018-10-01T21:55:31.658Z,68.16
2018-10-01T21:58:37.721Z,68.72
2018-10-01T22:01:42.724Z,68.06
2018-10-01T22:04:48.443Z,68.13
2018-10-01T22:07:54.253Z,69.49
2018-10-01T22:11:00.335Z,69.07
2018-10-01T22:14:06.555Z,68.70
2018-10-01T22:17:12.337Z,69.87
2018-10-01T22:20:18.206Z,70.32
2018-10-01T22:23:23.189Z,70.13
2018-10-01T22:26:28.991Z,71.48
2018-10-01T22:29:34.666Z,71.52
2018-10-01T22:32:40.797Z,72.39
2018-10-01T22:35:48.115Z,72.06
2018-10-01T22:38:53.297Z,72.97
2018-10-01T22:41:59.076Z,73.12
2018-10-01T22:45:04.697Z,72.87
2018-10-01T22:48:10.824Z,72.88
2018-10-01T22:51:16.634Z,73.86
2018-10-01T22:54:22.625Z,72.93
2018-10-01T22:57:27.634Z,73.53
2018-10-01T23:00:37.477Z,73.17
2018-10-01T23:03:42.713Z,73.80
2018-10-01T23:06:48.905Z,73.85
2018-10-01T23:09:53.924Z,73.87
2018-10-01T23:13:00.033Z,74.26
2018-10-01T23:16:06.098Z,74.08
2018-10-01T23:19:12.050Z,73.95
2018-10-01T23:22:18.082Z,74.09
2018-10-01T23:25:23.728Z,73.31
2018-10-01T23:28:29.643Z,73.63
2018-10-01T23:31:35.651Z,75.12
2018-10-01T23:34:41.813Z,74.33
2018-10-01T23:37:46.817Z,76.02
2018-10-01T23:40:52.621Z,76.34
2018-10-01T23:43:58.754Z,76.07
2018-10-01T23:47:04.948Z,77.21
2018-10-01T23:50:11.353Z,78.30
2018-10-01T23:53:17.242Z,79.42
2018-10-01T23:56:22.302Z,78.72
2018-10-01T23:59:27.344Z,79.63
